sensor_id;sensor_type;location;lat;lon;timestamp;P1;durP1;ratioP1;P2;durP2;ratioP2
30052;SDS011;17074;52.478;13.534;2022-08-01T00:01:02;3.45;;;1.88;;
30052;SDS011;17074;52.478;13.534;2022-08-01T00:03:28;2.03;;;1.70;;
30052;SDS011;17074;52.478;13.534;2022-08-01T00:05:53;5.72;;;1.92;;
30052;SDS011;17074;52.478;13.534;2022-08-01T00:08:19;3.65;;;2.08;;
30052;SDS011;17074;52.478;13.534;2022-08-01T00:10:45;2.80;;;2.20;;
30052;SDS011;17074;52.478;13.534;2022-08-01T00:13:10;2.63;;;1.80;;
30052;SDS011;17074;52.478;13.534;2022-08-01T00:15:36;2.92;;;1.92;;
30052;SDS011;17074;52.478;13.534;2022-08-01T00:18:02;3.38;;;2.00;;
30052;SDS011;17074;52.478;13.534;2022-08-01T00:20:27;2.22;;;1.80;;
30052;SDS011;17074;52.478;13.534;2022-08-01T00:22:53;3.90;;;2.50;;
30052;SDS011;17074;52.478;13.534;2022-08-01T00:25:19;4.95;;;2.13;;
30052;SDS011;17074;52.478;13.534;2022-08-01T00:27:44;2.95;;;2.10;;
30052;SDS011;17074;52.478;13.534;2022-08-01T00:30:10;3.83;;;2.10;;
30052;SDS011;17074;52.478;13.534;2022-08-01T00:32:35;4.55;;;2.47;;
30052;SDS011;17074;52.478;13.534;2022-08-01T00:35:01;3.22;;;2.00;;
30052;SDS011;17074;52.478;13.534;2022-08-01T00:37:27;3.40;;;2.00;;
30052;SDS011;17074;52.478;13.534;2022-08-01T00:39:52;3.00;;;2.03;;
30052;SDS011;17074;52.478;13.534;2022-08-01T00:42:19;2.25;;;2.00;;
30052;SDS011;17074;52.478;13.534;2022-08-01T00:44:44;2.17;;;1.98;;
30052;SDS011;17074;52.478;13.534;2022-08-01T00:47:10;3.60;;;2.20;;
30052;SDS011;17074;52.478;13.534;2022-08-01T00:49:36;2.58;;;2.08;;
30052;SDS011;17074;52.478;13.534;2022-08-01T00:52:02;2.10;;;1.80;;
30052;SDS011;17074;52.478;13.534;2022-08-01T00:54:30;2.92;;;2.38;;
30052;SDS011;17074;52.478;13.534;2022-08-01T00:56:55;2.33;;;2.08;;
30052;SDS011;17074;52.478;13.534;2022-08-01T00:59:22;3.03;;;2.10;;
30052;SDS011;17074;52.478;13.534;2022-08-01T01:01:49;2.30;;;2.10;;
30052;SDS011;17074;52.478;13.534;2022-08-01T01:04:15;3.17;;;2.03;;
30052;SDS011;17074;52.478;13.534;2022-08-01T01:17:35;2.00;;;1.80;;
30052;SDS011;17074;52.478;13.534;2022-08-01T01:20:05;2.55;;;2.00;;
30052;SDS011;17074;52.478;13.534;2022-08-01T01:22:36;2.70;;;2.13;;
30052;SDS011;17074;52.478;13.534;2022-08-01T01:25:09;2.83;;;2.15;;
30052;SDS011;17074;52.478;13.534;2022-08-01T01:30:37;2.22;;;2.00;;
30052;SDS011;17074;52.478;13.534;2022-08-01T01:33:06;3.50;;;1.85;;
30052;SDS011;17074;52.478;13.534;2022-08-01T01:35:35;2.60;;;2.08;;
30052;SDS011;17074;52.478;13.534;2022-08-01T01:41:03;2.42;;;2.00;;
30052;SDS011;17074;52.478;13.534;2022-08-01T01:43:30;2.60;;;1.92;;
30052;SDS011;17074;52.478;13.534;2022-08-01T01:45:58;2.10;;;1.90;;
30052;SDS011;17074;52.478;13.534;2022-08-01T01:48:24;4.15;;;2.20;;
30052;SDS011;17074;52.478;13.534;2022-08-01T01:50:52;3.60;;;2.40;;
30052;SDS011;17074;52.478;13.534;2022-08-01T01:53:20;2.42;;;2.05;;
30052;SDS011;17074;52.478;13.534;2022-08-01T01:55:48;2.90;;;2.00;;
30052;SDS011;17074;52.478;13.534;2022-08-01T01:58:17;4.75;;;2.22;;
30052;SDS011;17074;52.478;13.534;2022-08-01T02:00:44;3.60;;;2.05;;
30052;SDS011;17074;52.478;13.534;2022-08-01T02:03:13;3.08;;;2.10;;
30052;SDS011;17074;52.478;13.534;2022-08-01T02:05:39;2.88;;;2.40;;
30052;SDS011;17074;52.478;13.534;2022-08-01T02:08:07;2.47;;;2.20;;
30052;SDS011;17074;52.478;13.534;2022-08-01T02:10:35;3.03;;;2.10;;
30052;SDS011;17074;52.478;13.534;2022-08-01T02:13:03;3.08;;;2.20;;
30052;SDS011;17074;52.478;13.534;2022-08-01T02:15:31;2.08;;;1.88;;
30052;SDS011;17074;52.478;13.534;2022-08-01T02:17:59;2.88;;;2.50;;
30052;SDS011;17074;52.478;13.534;2022-08-01T02:20:27;3.03;;;2.40;;
30052;SDS011;17074;52.478;13.534;2022-08-01T02:23:03;2.20;;;2.00;;
30052;SDS011;17074;52.478;13.534;2022-08-01T02:25:53;2.42;;;2.22;;
30052;SDS011;17074;52.478;13.534;2022-08-01T02:28:21;2.40;;;2.15;;
30052;SDS011;17074;52.478;13.534;2022-08-01T02:30:53;2.45;;;2.20;;
30052;SDS011;17074;52.478;13.534;2022-08-01T02:33:24;2.00;;;1.85;;
30052;SDS011;17074;52.478;13.534;2022-08-01T02:35:57;2.95;;;2.40;;
30052;SDS011;17074;52.478;13.534;2022-08-01T02:38:24;3.33;;;2.35;;
30052;SDS011;17074;52.478;13.534;2022-08-01T02:40:52;3.00;;;2.38;;
30052;SDS011;17074;52.478;13.534;2022-08-01T02:43:23;3.65;;;2.40;;
30052;SDS011;17074;52.478;13.534;2022-08-01T02:45:51;2.50;;;2.25;;
30052;SDS011;17074;52.478;13.534;2022-08-01T02:48:19;2.63;;;2.25;;
30052;SDS011;17074;52.478;13.534;2022-08-01T02:50:48;3.35;;;2.67;;
30052;SDS011;17074;52.478;13.534;2022-08-01T02:53:16;3.92;;;2.47;;
30052;SDS011;17074;52.478;13.534;2022-08-01T02:55:44;4.15;;;2.50;;
30052;SDS011;17074;52.478;13.534;2022-08-01T02:58:12;3.70;;;2.20;;
30052;SDS011;17074;52.478;13.534;2022-08-01T03:00:41;3.13;;;2.50;;
30052;SDS011;17074;52.478;13.534;2022-08-01T03:03:09;2.45;;;2.03;;
30052;SDS011;17074;52.478;13.534;2022-08-01T03:05:36;4.32;;;2.88;;
30052;SDS011;17074;52.478;13.534;2022-08-01T03:08:05;6.00;;;2.70;;
30052;SDS011;17074;52.478;13.534;2022-08-01T03:10:33;4.85;;;2.40;;
30052;SDS011;17074;52.478;13.534;2022-08-01T03:13:01;2.25;;;2.00;;
30052;SDS011;17074;52.478;13.534;2022-08-01T03:15:30;3.40;;;2.40;;
30052;SDS011;17074;52.478;13.534;2022-08-01T03:17:58;3.22;;;2.17;;
30052;SDS011;17074;52.478;13.534;2022-08-01T03:20:26;3.15;;;2.53;;
30052;SDS011;17074;52.478;13.534;2022-08-01T03:22:54;3.65;;;2.47;;
30052;SDS011;17074;52.478;13.534;2022-08-01T03:25:23;4.00;;;2.28;;
30052;SDS011;17074;52.478;13.534;2022-08-01T03:27:54;3.08;;;2.30;;
30052;SDS011;17074;52.478;13.534;2022-08-01T03:30:22;3.30;;;2.22;;
30052;SDS011;17074;52.478;13.534;2022-08-01T03:32:48;2.53;;;2.30;;
30052;SDS011;17074;52.478;13.534;2022-08-01T03:35:14;2.67;;;2.25;;
30052;SDS011;17074;52.478;13.534;2022-08-01T03:37:41;2.33;;;2.10;;
30052;SDS011;17074;52.478;13.534;2022-08-01T03:43:18;2.58;;;2.38;;
30052;SDS011;17074;52.478;13.534;2022-08-01T03:45:48;3.85;;;2.55;;
30052;SDS011;17074;52.478;13.534;2022-08-01T03:48:16;2.70;;;2.50;;
30052;SDS011;17074;52.478;13.534;2022-08-01T03:50:51;2.35;;;2.10;;
30052;SDS011;17074;52.478;13.534;2022-08-01T03:53:22;3.38;;;2.47;;
30052;SDS011;17074;52.478;13.534;2022-08-01T03:55:49;3.22;;;2.33;;
30052;SDS011;17074;52.478;13.534;2022-08-01T03:58:15;3.22;;;2.45;;
30052;SDS011;17074;52.478;13.534;2022-08-01T04:00:42;2.47;;;1.90;;
30052;SDS011;17074;52.478;13.534;2022-08-01T04:03:08;2.90;;;2.30;;
30052;SDS011;17074;52.478;13.534;2022-08-01T04:05:35;3.38;;;1.95;;
30052;SDS011;17074;52.478;13.534;2022-08-01T04:08:01;3.15;;;2.38;;
30052;SDS011;17074;52.478;13.534;2022-08-01T04:10:28;4.70;;;2.33;;
30052;SDS011;17074;52.478;13.534;2022-08-01T04:12:54;2.40;;;2.00;;
30052;SDS011;17074;52.478;13.534;2022-08-01T04:15:20;2.47;;;2.00;;
30052;SDS011;17074;52.478;13.534;2022-08-01T04:17:46;2.67;;;2.03;;
30052;SDS011;17074;52.478;13.534;2022-08-01T04:20:12;3.72;;;2.30;;
30052;SDS011;17074;52.478;13.534;2022-08-01T04:22:38;2.63;;;2.13;;
30052;SDS011;17074;52.478;13.534;2022-08-01T04:25:04;2.63;;;2.28;;
30052;SDS011;17074;52.478;13.534;2022-08-01T04:27:36;2.60;;;2.30;;
30052;SDS011;17074;52.478;13.534;2022-08-01T04:30:05;3.38;;;2.00;;
30052;SDS011;17074;52.478;13.534;2022-08-01T04:32:33;4.13;;;2.78;;
30052;SDS011;17074;52.478;13.534;2022-08-01T04:35:01;4.25;;;2.72;;
30052;SDS011;17074;52.478;13.534;2022-08-01T04:37:30;3.70;;;2.80;;
30052;SDS011;17074;52.478;13.534;2022-08-01T04:39:56;5.70;;;3.80;;
30052;SDS011;17074;52.478;13.534;2022-08-01T04:42:23;6.68;;;3.20;;
30052;SDS011;17074;52.478;13.534;2022-08-01T04:44:48;5.43;;;3.55;;
30052;SDS011;17074;52.478;13.534;2022-08-01T04:47:14;6.55;;;3.78;;
30052;SDS011;17074;52.478;13.534;2022-08-01T04:49:40;4.60;;;3.60;;
30052;SDS011;17074;52.478;13.534;2022-08-01T04:52:07;6.45;;;3.58;;
30052;SDS011;17074;52.478;13.534;2022-08-01T04:54:33;6.45;;;3.60;;
30052;SDS011;17074;52.478;13.534;2022-08-01T04:57:06;4.60;;;3.63;;
30052;SDS011;17074;52.478;13.534;2022-08-01T04:59:32;5.38;;;3.38;;
30052;SDS011;17074;52.478;13.534;2022-08-01T05:02:05;4.90;;;3.47;;
30052;SDS011;17074;52.478;13.534;2022-08-01T05:04:34;4.63;;;3.55;;
30052;SDS011;17074;52.478;13.534;2022-08-01T05:06:59;8.60;;;3.20;;
30052;SDS011;17074;52.478;13.534;2022-08-01T05:09:26;4.25;;;2.92;;
30052;SDS011;17074;52.478;13.534;2022-08-01T05:11:51;3.92;;;3.28;;
30052;SDS011;17074;52.478;13.534;2022-08-01T05:14:17;4.00;;;2.95;;
30052;SDS011;17074;52.478;13.534;2022-08-01T05:16:43;4.45;;;3.25;;
30052;SDS011;17074;52.478;13.534;2022-08-01T05:19:10;5.60;;;3.55;;
30052;SDS011;17074;52.478;13.534;2022-08-01T05:21:36;6.97;;;3.72;;
30052;SDS011;17074;52.478;13.534;2022-08-01T05:24:03;9.50;;;3.92;;
30052;SDS011;17074;52.478;13.534;2022-08-01T05:26:29;4.43;;;3.80;;
30052;SDS011;17074;52.478;13.534;2022-08-01T05:28:55;5.55;;;3.90;;
30052;SDS011;17074;52.478;13.534;2022-08-01T05:31:21;8.48;;;4.13;;
30052;SDS011;17074;52.478;13.534;2022-08-01T05:33:46;8.15;;;4.20;;
30052;SDS011;17074;52.478;13.534;2022-08-01T05:36:12;7.13;;;4.28;;
30052;SDS011;17074;52.478;13.534;2022-08-01T05:38:38;5.85;;;4.50;;
30052;SDS011;17074;52.478;13.534;2022-08-01T05:41:04;8.63;;;4.88;;
30052;SDS011;17074;52.478;13.534;2022-08-01T05:43:29;6.78;;;4.53;;
30052;SDS011;17074;52.478;13.534;2022-08-01T05:45:55;5.72;;;3.92;;
30052;SDS011;17074;52.478;13.534;2022-08-01T05:48:21;5.47;;;4.32;;
30052;SDS011;17074;52.478;13.534;2022-08-01T05:50:46;6.65;;;3.97;;
30052;SDS011;17074;52.478;13.534;2022-08-01T05:53:12;4.47;;;3.50;;
30052;SDS011;17074;52.478;13.534;2022-08-01T05:55:38;4.07;;;3.67;;
30052;SDS011;17074;52.478;13.534;2022-08-01T05:58:04;5.50;;;3.83;;
30052;SDS011;17074;52.478;13.534;2022-08-01T06:00:30;3.70;;;3.22;;
30052;SDS011;17074;52.478;13.534;2022-08-01T06:02:55;3.72;;;3.40;;
30052;SDS011;17074;52.478;13.534;2022-08-01T06:05:21;3.45;;;2.83;;
30052;SDS011;17074;52.478;13.534;2022-08-01T06:07:47;5.40;;;3.25;;
30052;SDS011;17074;52.478;13.534;2022-08-01T06:10:12;4.88;;;3.55;;
30052;SDS011;17074;52.478;13.534;2022-08-01T06:12:38;4.35;;;3.15;;
30052;SDS011;17074;52.478;13.534;2022-08-01T06:15:04;4.75;;;2.92;;
30052;SDS011;17074;52.478;13.534;2022-08-01T06:17:31;5.15;;;2.88;;
30052;SDS011;17074;52.478;13.534;2022-08-01T06:19:56;10.95;;;3.65;;
30052;SDS011;17074;52.478;13.534;2022-08-01T06:22:22;13.45;;;3.67;;
30052;SDS011;17074;52.478;13.534;2022-08-01T06:24:48;22.80;;;5.60;;
30052;SDS011;17074;52.478;13.534;2022-08-01T06:27:13;19.10;;;4.70;;
30052;SDS011;17074;52.478;13.534;2022-08-01T06:29:39;39.45;;;9.90;;
30052;SDS011;17074;52.478;13.534;2022-08-01T06:32:05;5.75;;;2.97;;
30052;SDS011;17074;52.478;13.534;2022-08-01T06:34:31;4.90;;;3.35;;
30052;SDS011;17074;52.478;13.534;2022-08-01T06:36:57;2.60;;;2.20;;
30052;SDS011;17074;52.478;13.534;2022-08-01T06:39:22;3.42;;;1.95;;
30052;SDS011;17074;52.478;13.534;2022-08-01T06:41:48;3.75;;;2.03;;
30052;SDS011;17074;52.478;13.534;2022-08-01T06:44:16;5.28;;;2.53;;
30052;SDS011;17074;52.478;13.534;2022-08-01T06:46:42;7.25;;;2.95;;
30052;SDS011;17074;52.478;13.534;2022-08-01T06:49:08;3.13;;;2.38;;
30052;SDS011;17074;52.478;13.534;2022-08-01T06:51:33;2.92;;;2.03;;
30052;SDS011;17074;52.478;13.534;2022-08-01T06:53:59;3.00;;;2.20;;
30052;SDS011;17074;52.478;13.534;2022-08-01T06:56:25;2.10;;;1.85;;
30052;SDS011;17074;52.478;13.534;2022-08-01T06:58:50;2.28;;;1.88;;
30052;SDS011;17074;52.478;13.534;2022-08-01T07:01:16;4.13;;;2.60;;
30052;SDS011;17074;52.478;13.534;2022-08-01T07:03:41;2.33;;;1.88;;
30052;SDS011;17074;52.478;13.534;2022-08-01T07:06:07;3.00;;;2.08;;
30052;SDS011;17074;52.478;13.534;2022-08-01T07:08:33;4.60;;;2.05;;
30052;SDS011;17074;52.478;13.534;2022-08-01T07:10:59;2.47;;;1.70;;
30052;SDS011;17074;52.478;13.534;2022-08-01T07:13:26;2.03;;;1.83;;
30052;SDS011;17074;52.478;13.534;2022-08-01T07:15:52;1.88;;;1.70;;
30052;SDS011;17074;52.478;13.534;2022-08-01T07:18:18;4.28;;;1.80;;
30052;SDS011;17074;52.478;13.534;2022-08-01T07:20:43;2.42;;;1.60;;
30052;SDS011;17074;52.478;13.534;2022-08-01T07:23:11;5.13;;;1.80;;
30052;SDS011;17074;52.478;13.534;2022-08-01T07:25:37;2.47;;;1.40;;
30052;SDS011;17074;52.478;13.534;2022-08-01T07:28:03;2.03;;;1.45;;
30052;SDS011;17074;52.478;13.534;2022-08-01T07:30:29;1.48;;;1.33;;
30052;SDS011;17074;52.478;13.534;2022-08-01T07:32:55;2.38;;;1.45;;
30052;SDS011;17074;52.478;13.534;2022-08-01T07:35:21;1.65;;;1.40;;
30052;SDS011;17074;52.478;13.534;2022-08-01T07:37:47;1.52;;;1.40;;
30052;SDS011;17074;52.478;13.534;2022-08-01T07:40:12;1.98;;;1.40;;
30052;SDS011;17074;52.478;13.534;2022-08-01T07:42:38;2.10;;;1.30;;
30052;SDS011;17074;52.478;13.534;2022-08-01T07:45:08;2.75;;;1.38;;
30052;SDS011;17074;52.478;13.534;2022-08-01T07:47:34;1.98;;;1.50;;
30052;SDS011;17074;52.478;13.534;2022-08-01T07:50:00;1.42;;;1.33;;
30052;SDS011;17074;52.478;13.534;2022-08-01T07:52:28;2.13;;;1.85;;
30052;SDS011;17074;52.478;13.534;2022-08-01T07:54:55;10.20;;;2.92;;
30052;SDS011;17074;52.478;13.534;2022-08-01T07:57:21;5.63;;;2.67;;
30052;SDS011;17074;52.478;13.534;2022-08-01T07:59:47;1.63;;;1.52;;
30052;SDS011;17074;52.478;13.534;2022-08-01T08:02:13;3.78;;;2.03;;
30052;SDS011;17074;52.478;13.534;2022-08-01T08:04:39;4.80;;;2.53;;
30052;SDS011;17074;52.478;13.534;2022-08-01T08:07:04;2.28;;;1.70;;
30052;SDS011;17074;52.478;13.534;2022-08-01T08:09:30;6.25;;;1.80;;
30052;SDS011;17074;52.478;13.534;2022-08-01T08:11:56;9.60;;;2.38;;
30052;SDS011;17074;52.478;13.534;2022-08-01T08:14:21;4.30;;;1.55;;
30052;SDS011;17074;52.478;13.534;2022-08-01T08:16:47;2.13;;;1.90;;
30052;SDS011;17074;52.478;13.534;2022-08-01T08:19:13;1.48;;;1.38;;
30052;SDS011;17074;52.478;13.534;2022-08-01T08:21:39;2.95;;;2.00;;
30052;SDS011;17074;52.478;13.534;2022-08-01T08:24:05;1.85;;;1.55;;
30052;SDS011;17074;52.478;13.534;2022-08-01T08:26:49;3.42;;;1.73;;
30052;SDS011;17074;52.478;13.534;2022-08-01T08:29:19;2.35;;;1.70;;
30052;SDS011;17074;52.478;13.534;2022-08-01T08:31:46;2.83;;;2.30;;
30052;SDS011;17074;52.478;13.534;2022-08-01T08:34:12;3.75;;;2.17;;
30052;SDS011;17074;52.478;13.534;2022-08-01T08:36:38;3.15;;;2.60;;
30052;SDS011;17074;52.478;13.534;2022-08-01T08:39:04;2.90;;;1.90;;
30052;SDS011;17074;52.478;13.534;2022-08-01T08:41:30;3.00;;;2.45;;
30052;SDS011;17074;52.478;13.534;2022-08-01T08:44:03;2.95;;;2.40;;
30052;SDS011;17074;52.478;13.534;2022-08-01T08:46:29;4.22;;;2.40;;
30052;SDS011;17074;52.478;13.534;2022-08-01T08:49:00;2.58;;;2.30;;
30052;SDS011;17074;52.478;13.534;2022-08-01T08:51:29;4.57;;;1.83;;
30052;SDS011;17074;52.478;13.534;2022-08-01T08:53:57;2.65;;;1.83;;
30052;SDS011;17074;52.478;13.534;2022-08-01T08:56:23;3.03;;;1.98;;
30052;SDS011;17074;52.478;13.534;2022-08-01T08:58:50;2.05;;;1.70;;
30052;SDS011;17074;52.478;13.534;2022-08-01T09:01:16;1.88;;;1.48;;
30052;SDS011;17074;52.478;13.534;2022-08-01T09:03:43;2.63;;;1.70;;
30052;SDS011;17074;52.478;13.534;2022-08-01T09:06:09;4.43;;;2.25;;
30052;SDS011;17074;52.478;13.534;2022-08-01T09:08:35;1.70;;;1.60;;
30052;SDS011;17074;52.478;13.534;2022-08-01T09:11:01;4.95;;;1.92;;
30052;SDS011;17074;52.478;13.534;2022-08-01T09:13:28;2.78;;;1.50;;
30052;SDS011;17074;52.478;13.534;2022-08-01T09:15:54;2.78;;;1.60;;
30052;SDS011;17074;52.478;13.534;2022-08-01T09:23:35;14.13;;;1.80;;
30052;SDS011;17074;52.478;13.534;2022-08-01T09:26:07;2.92;;;1.20;;
30052;SDS011;17074;52.478;13.534;2022-08-01T09:28:34;1.95;;;0.95;;
30052;SDS011;17074;52.478;13.534;2022-08-01T09:31:14;1.25;;;1.15;;
30052;SDS011;17074;52.478;13.534;2022-08-01T09:36:21;0.82;;;0.70;;
30052;SDS011;17074;52.478;13.534;2022-08-01T09:38:52;1.95;;;0.60;;
30052;SDS011;17074;52.478;13.534;2022-08-01T09:41:29;0.95;;;0.80;;
30052;SDS011;17074;52.478;13.534;2022-08-01T09:43:58;0.77;;;0.77;;
30052;SDS011;17074;52.478;13.534;2022-08-01T09:46:24;1.55;;;0.95;;
30052;SDS011;17074;52.478;13.534;2022-08-01T09:49:09;1.20;;;0.93;;
30052;SDS011;17074;52.478;13.534;2022-08-01T09:51:35;2.88;;;1.15;;
30052;SDS011;17074;52.478;13.534;2022-08-01T09:54:03;5.07;;;1.75;;
30052;SDS011;17074;52.478;13.534;2022-08-01T09:56:42;1.90;;;1.05;;
30052;SDS011;17074;52.478;13.534;2022-08-01T09:59:08;2.75;;;1.23;;
30052;SDS011;17074;52.478;13.534;2022-08-01T10:04:14;1.77;;;0.88;;
30052;SDS011;17074;52.478;13.534;2022-08-01T10:06:42;1.15;;;0.90;;
30052;SDS011;17074;52.478;13.534;2022-08-01T10:09:10;1.02;;;0.93;;
30052;SDS011;17074;52.478;13.534;2022-08-01T10:11:37;2.67;;;1.33;;
30052;SDS011;17074;52.478;13.534;2022-08-01T10:14:05;1.88;;;1.10;;
30052;SDS011;17074;52.478;13.534;2022-08-01T10:16:32;1.75;;;1.10;;
30052;SDS011;17074;52.478;13.534;2022-08-01T10:19:05;1.50;;;1.10;;
30052;SDS011;17074;52.478;13.534;2022-08-01T10:21:32;1.92;;;1.25;;
30052;SDS011;17074;52.478;13.534;2022-08-01T10:24:02;4.38;;;1.42;;
30052;SDS011;17074;52.478;13.534;2022-08-01T10:26:29;4.75;;;1.48;;
30052;SDS011;17074;52.478;13.534;2022-08-01T10:28:58;5.45;;;1.65;;
30052;SDS011;17074;52.478;13.534;2022-08-01T10:31:24;6.35;;;1.10;;
30052;SDS011;17074;52.478;13.534;2022-08-01T10:33:50;4.35;;;1.55;;
30052;SDS011;17074;52.478;13.534;2022-08-01T10:36:18;2.78;;;1.20;;
30052;SDS011;17074;52.478;13.534;2022-08-01T10:38:48;2.50;;;1.55;;
30052;SDS011;17074;52.478;13.534;2022-08-01T10:41:14;2.10;;;1.30;;
30052;SDS011;17074;52.478;13.534;2022-08-01T10:43:43;11.35;;;1.65;;
30052;SDS011;17074;52.478;13.534;2022-08-01T10:46:09;1.75;;;1.10;;
30052;SDS011;17074;52.478;13.534;2022-08-01T10:48:39;2.55;;;1.55;;
30052;SDS011;17074;52.478;13.534;2022-08-01T10:51:25;1.42;;;0.93;;
30052;SDS011;17074;52.478;13.534;2022-08-01T10:53:53;1.88;;;1.00;;
30052;SDS011;17074;52.478;13.534;2022-08-01T10:56:19;1.10;;;0.80;;
30052;SDS011;17074;52.478;13.534;2022-08-01T10:58:46;1.05;;;1.00;;
30052;SDS011;17074;52.478;13.534;2022-08-01T11:03:43;1.17;;;0.85;;
30052;SDS011;17074;52.478;13.534;2022-08-01T11:06:22;2.35;;;1.13;;
30052;SDS011;17074;52.478;13.534;2022-08-01T11:12:02;0.88;;;0.60;;
30052;SDS011;17074;52.478;13.534;2022-08-01T11:17:30;1.10;;;1.00;;
30052;SDS011;17074;52.478;13.534;2022-08-01T11:25:24;0.95;;;0.77;;
30052;SDS011;17074;52.478;13.534;2022-08-01T11:28:16;1.27;;;0.75;;
30052;SDS011;17074;52.478;13.534;2022-08-01T11:30:38;2.15;;;1.00;;
30052;SDS011;17074;52.478;13.534;2022-08-01T11:33:08;3.47;;;0.90;;
30052;SDS011;17074;52.478;13.534;2022-08-01T11:35:34;0.75;;;0.73;;
30052;SDS011;17074;52.478;13.534;2022-08-01T11:43:55;0.82;;;0.60;;
30052;SDS011;17074;52.478;13.534;2022-08-01T11:49:23;1.42;;;0.90;;
30052;SDS011;17074;52.478;13.534;2022-08-01T11:52:08;1.00;;;0.90;;
30052;SDS011;17074;52.478;13.534;2022-08-01T11:57:11;0.80;;;0.80;;
30052;SDS011;17074;52.478;13.534;2022-08-01T11:59:49;1.00;;;0.90;;
30052;SDS011;17074;52.478;13.534;2022-08-01T12:05:04;4.65;;;1.52;;
30052;SDS011;17074;52.478;13.534;2022-08-01T12:10:30;1.40;;;0.90;;
30052;SDS011;17074;52.478;13.534;2022-08-01T12:13:03;0.55;;;0.55;;
30052;SDS011;17074;52.478;13.534;2022-08-01T12:15:34;1.48;;;0.63;;
30052;SDS011;17074;52.478;13.534;2022-08-01T12:18:02;1.50;;;0.93;;
30052;SDS011;17074;52.478;13.534;2022-08-01T12:20:33;0.52;;;0.52;;
30052;SDS011;17074;52.478;13.534;2022-08-01T12:23:01;0.85;;;0.70;;
30052;SDS011;17074;52.478;13.534;2022-08-01T12:28:52;2.13;;;0.80;;
30052;SDS011;17074;52.478;13.534;2022-08-01T12:31:18;0.85;;;0.80;;
30052;SDS011;17074;52.478;13.534;2022-08-01T12:37:17;0.57;;;0.52;;
30052;SDS011;17074;52.478;13.534;2022-08-01T12:39:43;4.25;;;0.93;;
30052;SDS011;17074;52.478;13.534;2022-08-01T12:44:47;3.50;;;0.80;;
30052;SDS011;17074;52.478;13.534;2022-08-01T12:47:16;1.00;;;0.70;;
30052;SDS011;17074;52.478;13.534;2022-08-01T12:49:43;2.08;;;1.65;;
30052;SDS011;17074;52.478;13.534;2022-08-01T12:52:09;0.90;;;0.80;;
30052;SDS011;17074;52.478;13.534;2022-08-01T12:55:11;0.93;;;0.82;;
30052;SDS011;17074;52.478;13.534;2022-08-01T12:57:29;1.10;;;0.88;;
30052;SDS011;17074;52.478;13.534;2022-08-01T13:02:35;1.38;;;1.27;;
30052;SDS011;17074;52.478;13.534;2022-08-01T13:05:01;1.05;;;0.98;;
30052;SDS011;17074;52.478;13.534;2022-08-01T13:07:44;0.90;;;0.90;;
30052;SDS011;17074;52.478;13.534;2022-08-01T13:13:37;1.42;;;1.00;;
30052;SDS011;17074;52.478;13.534;2022-08-01T13:16:07;1.23;;;0.90;;
30052;SDS011;17074;52.478;13.534;2022-08-01T13:18:34;0.70;;;0.70;;
30052;SDS011;17074;52.478;13.534;2022-08-01T13:21:07;0.93;;;0.80;;
30052;SDS011;17074;52.478;13.534;2022-08-01T13:26:46;0.75;;;0.75;;
30052;SDS011;17074;52.478;13.534;2022-08-01T13:29:49;1.48;;;1.00;;
30052;SDS011;17074;52.478;13.534;2022-08-01T13:32:18;1.00;;;1.00;;
30052;SDS011;17074;52.478;13.534;2022-08-01T13:34:45;0.82;;;0.80;;
30052;SDS011;17074;52.478;13.534;2022-08-01T13:37:11;0.80;;;0.77;;
30052;SDS011;17074;52.478;13.534;2022-08-01T13:39:37;1.95;;;0.80;;
30052;SDS011;17074;52.478;13.534;2022-08-01T13:42:07;1.38;;;0.95;;
30052;SDS011;17074;52.478;13.534;2022-08-01T13:44:33;1.20;;;1.10;;
30052;SDS011;17074;52.478;13.534;2022-08-01T13:46:59;1.15;;;0.90;;
30052;SDS011;17074;52.478;13.534;2022-08-01T13:49:24;1.08;;;0.95;;
30052;SDS011;17074;52.478;13.534;2022-08-01T13:51:50;1.00;;;0.90;;
30052;SDS011;17074;52.478;13.534;2022-08-01T13:54:16;0.90;;;0.88;;
30052;SDS011;17074;52.478;13.534;2022-08-01T13:56:42;1.98;;;0.98;;
30052;SDS011;17074;52.478;13.534;2022-08-01T13:59:07;1.58;;;0.98;;
30052;SDS011;17074;52.478;13.534;2022-08-01T14:01:34;1.02;;;0.90;;
30052;SDS011;17074;52.478;13.534;2022-08-01T14:04:01;1.75;;;1.10;;
30052;SDS011;17074;52.478;13.534;2022-08-01T14:06:27;0.85;;;0.85;;
30052;SDS011;17074;52.478;13.534;2022-08-01T14:08:54;1.35;;;1.05;;
30052;SDS011;17074;52.478;13.534;2022-08-01T14:11:19;2.20;;;1.00;;
30052;SDS011;17074;52.478;13.534;2022-08-01T14:16:39;1.13;;;0.90;;
30052;SDS011;17074;52.478;13.534;2022-08-01T14:19:10;0.82;;;0.82;;
30052;SDS011;17074;52.478;13.534;2022-08-01T14:21:35;1.30;;;1.05;;
30052;SDS011;17074;52.478;13.534;2022-08-01T14:24:01;1.63;;;1.20;;
30052;SDS011;17074;52.478;13.534;2022-08-01T14:26:27;5.05;;;1.42;;
30052;SDS011;17074;52.478;13.534;2022-08-01T14:28:52;2.72;;;1.13;;
30052;SDS011;17074;52.478;13.534;2022-08-01T14:31:18;1.42;;;1.33;;
30052;SDS011;17074;52.478;13.534;2022-08-01T14:33:43;1.77;;;1.00;;
30052;SDS011;17074;52.478;13.534;2022-08-01T14:36:09;1.00;;;1.00;;
30052;SDS011;17074;52.478;13.534;2022-08-01T14:38:35;1.17;;;1.08;;
30052;SDS011;17074;52.478;13.534;2022-08-01T14:41:00;1.08;;;0.80;;
30052;SDS011;17074;52.478;13.534;2022-08-01T14:43:28;1.05;;;0.95;;
30052;SDS011;17074;52.478;13.534;2022-08-01T14:45:54;1.20;;;1.00;;
30052;SDS011;17074;52.478;13.534;2022-08-01T14:48:19;3.15;;;0.95;;
30052;SDS011;17074;52.478;13.534;2022-08-01T14:50:45;1.70;;;0.80;;
30052;SDS011;17074;52.478;13.534;2022-08-01T14:53:11;1.02;;;0.90;;
30052;SDS011;17074;52.478;13.534;2022-08-01T14:55:37;2.85;;;1.10;;
30052;SDS011;17074;52.478;13.534;2022-08-01T14:58:06;1.00;;;0.85;;
30052;SDS011;17074;52.478;13.534;2022-08-01T15:00:32;3.90;;;1.02;;
30052;SDS011;17074;52.478;13.534;2022-08-01T15:03:04;1.10;;;0.93;;
30052;SDS011;17074;52.478;13.534;2022-08-01T15:05:29;2.35;;;0.80;;
30052;SDS011;17074;52.478;13.534;2022-08-01T15:07:57;0.93;;;0.70;;
30052;SDS011;17074;52.478;13.534;2022-08-01T15:10:22;0.70;;;0.70;;
30052;SDS011;17074;52.478;13.534;2022-08-01T15:12:48;3.28;;;1.10;;
30052;SDS011;17074;52.478;13.534;2022-08-01T15:15:14;1.30;;;1.00;;
30052;SDS011;17074;52.478;13.534;2022-08-01T15:17:48;1.30;;;0.82;;
30052;SDS011;17074;52.478;13.534;2022-08-01T15:20:14;2.25;;;0.90;;
30052;SDS011;17074;52.478;13.534;2022-08-01T15:22:39;0.70;;;0.70;;
30052;SDS011;17074;52.478;13.534;2022-08-01T15:25:05;1.10;;;1.00;;
30052;SDS011;17074;52.478;13.534;2022-08-01T15:27:31;1.00;;;0.90;;
30052;SDS011;17074;52.478;13.534;2022-08-01T15:29:56;1.42;;;0.90;;
30052;SDS011;17074;52.478;13.534;2022-08-01T15:32:22;0.70;;;0.70;;
30052;SDS011;17074;52.478;13.534;2022-08-01T15:34:48;1.85;;;0.90;;
30052;SDS011;17074;52.478;13.534;2022-08-01T15:37:14;1.80;;;0.73;;
30052;SDS011;17074;52.478;13.534;2022-08-01T15:39:40;0.98;;;0.85;;
30052;SDS011;17074;52.478;13.534;2022-08-01T15:42:08;1.65;;;0.60;;
30052;SDS011;17074;52.478;13.534;2022-08-01T15:44:34;0.82;;;0.80;;
30052;SDS011;17074;52.478;13.534;2022-08-01T15:47:01;0.77;;;0.77;;
30052;SDS011;17074;52.478;13.534;2022-08-01T15:49:28;1.00;;;0.90;;
30052;SDS011;17074;52.478;13.534;2022-08-01T15:51:54;1.50;;;0.68;;
30052;SDS011;17074;52.478;13.534;2022-08-01T15:54:20;0.75;;;0.73;;
30052;SDS011;17074;52.478;13.534;2022-08-01T15:56:46;1.48;;;0.68;;
30052;SDS011;17074;52.478;13.534;2022-08-01T15:59:11;2.25;;;0.65;;